Time;durP1;ratioP1;P1;durP2;ratioP2;P2;SDS_P1;SDS_P2;PMS_P1;PMS_P2;Temp;Humidity;BMP_temperature;BMP_pressure;BME280_temperature;BME280_humidity;BME280_pressure;Samples;Min_cycle;Max_cycle;Signal;HPM_P1;HPM_P2
2022/04/23 00:05:02;;;;;;;;;;;;;;;;;;;;;
2022/04/23 00:08:40;;;;;;;9.23;7.28;;;;;;;13.61;46.66;99482.90;1652536;115;25844;-84
2022/04/23 00:12:27;;;;;;;;;;;;;;;;;;;;;
2022/04/23 00:17:34;;;;;;;;;;;;;;;;;;;;;
2022/04/23 00:26:16;;;;;;;9.10;8.20;;;;;;;13.53;46.65;99465.88;;;;
2022/04/23 00:30:13;;;;;;;9.15;8.20;;;;;;;13.50;46.68;99455.44;;;;
2022/04/23 00:33:55;;;;;;;;;;;;;;;;;;;;;
2022/04/23 00:37:35;;;;;;;;;;;;;;;;;;;;;
2022/04/23 00:42:08;;;;;;;9.85;7.40;;;;;;;13.51;46.76;99448.45;1683529;112;25864;-88
2022/04/23 00:45:35;;;;;;;;;;;;;;;;;;;;;
2022/04/23 00:49:14;;;;;;;8.88;8.08;;;;;;;13.49;46.76;99443.64;1755431;107;26699;-88
2022/04/23 00:52:51;;;;;;;9.18;7.78;;;;;;;13.48;46.81;99437.55;1802731;108;25888;-88
2022/04/23 00:56:50;;;;;;;8.85;7.92;;;;;;;13.47;46.81;99437.13;1812370;107;25900;-81
2022/04/23 01:01:00;;;;;;;7.95;6.78;;;;;;;13.45;46.78;99427.08;1763034;111;25865;-80
2022/04/23 01:10:19;;;;;;;7.60;6.62;;;;;;;13.36;46.84;99419.24;;;;
2022/04/23 01:31:44;;;;;;;7.75;6.97;;;;;;;13.22;46.93;99406.17;;;;
2022/04/23 01:35:46;;;;;;;;;;;;;;;;;;;;;
2022/04/23 01:39:15;;;;;;;8.80;8.00;;;;;;;13.18;47.02;99393.53;1827543;106;25823;-79
2022/04/23 01:42:45;;;;;;;8.83;7.87;;;;;;;13.16;47.08;99385.23;1817467;106;26311;-85
2022/04/23 01:46:05;;;;;;;8.83;7.62;;;;;;;13.14;47.09;99385.26;1806246;106;25894;-88
2022/04/23 01:49:39;;;;;;;9.18;8.30;;;;;;;13.12;47.14;99380.90;1794286;107;25546;-88
2022/04/23 01:53:24;;;;;;;9.05;8.25;;;;;;;13.09;47.19;99376.53;1808089;107;25863;-86
2022/04/23 01:57:01;;;;;;;;;;;;;;;;;;;;;
2022/04/23 02:00:26;;;;;;;9.63;7.70;;;;;;;13.06;47.29;99364.80;1834245;105;25552;-88
2022/04/23 02:04:18;;;;;;;8.88;7.90;;;;;;;13.06;47.27;99366.11;1855084;103;25773;-80
2022/04/23 02:07:56;;;;;;;8.08;7.35;;;;;;;13.04;47.34;99366.54;1842971;105;25819;-81
2022/04/23 02:11:32;;;;;;;9.95;8.38;;;;;;;13.05;47.39;99365.66;1833245;106;25813;-82
2022/04/23 02:15:29;;;;;;;9.20;8.30;;;;;;;13.05;47.41;99368.71;1864101;104;26014;-80
2022/04/23 02:19:39;;;;;;;;;;;;;;;;;;;;;
2022/04/23 02:22:55;;;;;;;9.90;8.23;;;;;;;13.02;47.52;99363.05;1880762;105;25808;-80
2022/04/23 02:26:30;;;;;;;10.85;8.93;;;;;;;13.00;47.64;99357.83;1830414;104;25872;-78
2022/04/23 02:33:57;;;;;;;11.38;8.38;;;;;;;13.02;47.67;99356.50;1812905;107;25882;-79
2022/04/23 02:37:46;;;;;;;9.35;8.35;;;;;;;13.01;47.71;99357.39;1801976;109;25885;-79
2022/04/23 02:41:11;;;;;;;9.10;8.18;;;;;;;13.00;47.72;99352.59;1801367;108;25788;-79
2022/04/23 02:44:52;;;;;;;8.58;7.83;;;;;;;13.00;47.71;99356.96;1747688;111;25859;-83
2022/04/23 02:48:26;;;;;;;11.65;8.50;;;;;;;12.98;47.75;99356.08;1710356;114;25931;-79
2022/04/23 02:52:20;;;;;;;;;;;;;;;;;;;;;
2022/04/23 02:55:40;;;;;;;12.33;9.18;;;;;;;12.80;47.71;99332.60;1709699;112;25901;-81
2022/04/23 02:59:12;;;;;;;12.15;9.60;;;;;;;12.90;47.87;99361.78;1732372;112;25941;-80
2022/04/23 03:02:50;;;;;;;10.50;9.35;;;;;;;12.87;47.91;99357.42;1713222;113;25809;-80
2022/04/23 03:06:14;;;;;;;12.23;9.83;;;;;;;12.86;48.00;99360.02;1716302;112;25899;-83
2022/04/23 03:10:04;;;;;;;;;;;;;;;;;;;;;
2022/04/23 03:13:19;;;;;;;11.35;8.73;;;;;;;12.84;48.06;99353.94;1738052;110;26065;-88
2022/04/23 03:17:02;;;;;;;11.65;9.85;;;;;;;12.84;48.10;99357.87;1734894;112;26354;-80
2022/04/23 03:20:23;;;;;;;10.48;8.73;;;;;;;12.84;48.11;99361.34;1735431;113;26101;-82
2022/04/23 03:24:16;;;;;;;9.50;8.53;;;;;;;12.85;48.10;99362.21;1711257;113;25782;-84
2022/04/23 03:27:53;;;;;;;12.58;8.98;;;;;;;12.86;48.17;99358.71;1711757;115;26197;-81
2022/04/23 03:31:48;;;;;;;12.80;8.48;;;;;;;12.86;48.17;99350.87;1595324;121;26356;-87
2022/04/23 03:35:18;;;;;;;12.95;9.15;;;;;;;12.85;48.20;99351.75;1618128;120;26004;-87
2022/04/23 03:38:56;;;;;;;9.60;8.60;;;;;;;12.85;48.26;99353.92;1616923;120;25931;-82
2022/04/23 03:46:35;;;;;;;9.40;8.58;;;;;;;12.86;48.32;99357.00;1695727;115;25901;-85
2022/04/23 03:50:16;;;;;;;11.95;8.78;;;;;;;12.88;48.35;99362.21;1707671;112;25856;-82
2022/04/23 03:54:14;;;;;;;9.20;8.33;;;;;;;12.88;48.35;99364.83;1707976;112;25877;-86
2022/04/23 04:25:57;;;;;;;10.63;8.37;;;;;;;12.90;48.52;99357.86;1636502;117;26320;-80
2022/04/23 04:29:48;;;;;;;;;;;;;;;;;;;;;
2022/04/23 04:33:23;;;;;;;11.95;8.95;;;;;;;13.01;48.57;99363.92;1668706;115;26627;-86
2022/04/23 04:36:49;;;;;;;10.10;8.75;;;;;;;13.03;48.59;99360.88;1704752;110;25914;-87
2022/04/23 04:40:25;;;;;;;10.70;9.53;;;;;;;13.03;48.65;99357.37;1771035;109;26021;-88
2022/04/23 04:44:07;;;;;;;10.45;9.33;;;;;;;13.04;48.67;99357.82;1834411;106;26006;-89
2022/04/23 04:47:45;;;;;;;10.45;9.13;;;;;;;13.10;48.71;99359.13;1857447;105;26012;-87
2022/04/23 04:51:36;;;;;;;9.77;8.97;;;;;;;13.13;48.75;99359.98;1854662;105;25931;-86
2022/04/23 04:55:19;;;;;;;10.08;9.00;;;;;;;13.18;48.72;99362.13;1831613;106;25876;-86
2022/04/23 04:58:46;;;;;;;9.65;8.75;;;;;;;13.27;48.70;99369.56;1830956;105;25895;-79
2022/04/23 05:02:18;;;;;;;9.93;8.75;;;;;;;13.32;48.59;99370.40;1824255;105;25987;-80
2022/04/23 05:05:52;;;;;;;9.63;8.55;;;;;;;13.36;48.59;99369.50;1814025;108;26049;-80
2022/04/23 05:09:32;;;;;;;9.20;8.40;;;;;;;13.40;48.55;99370.82;1823767;106;26036;-79
2022/04/23 05:13:11;;;;;;;9.38;8.43;;;;;;;13.45;48.49;99370.34;1824236;105;25938;-83
2022/04/23 05:16:45;;;;;;;9.90;8.88;;;;;;;13.55;48.47;99365.08;1774100;109;25596;-84
2022/04/23 05:20:34;;;;;;;10.28;8.50;;;;;;;13.64;48.42;99377.69;1774583;110;26538;-83
2022/04/23 05:24:09;;;;;;;10.32;9.25;;;;;;;13.71;48.35;99374.60;1775464;108;25855;-79
2022/04/23 05:27:39;;;;;;;11.68;8.63;;;;;;;13.77;48.32;99371.05;1782648;109;25993;-88
2022/04/23 05:31:17;;;;;;;8.65;7.75;;;;;;;13.86;48.31;99374.50;1771841;110;25834;-81
2022/04/23 05:34:47;;;;;;;8.83;7.95;;;;;;;13.85;48.27;99348.33;1801446;108;26035;-80
2022/04/23 05:38:18;;;;;;;8.48;7.62;;;;;;;14.10;48.22;99380.47;1791359;110;25887;-81
2022/04/23 05:41:53;;;;;;;8.60;7.80;;;;;;;14.10;48.15;99360.81;1825407;106;25873;-80
2022/04/23 05:45:36;;;;;;;9.08;8.18;;;;;;;14.30;48.11;99384.25;1853736;105;25824;-78
2022/04/23 05:49:21;;;;;;;7.67;6.92;;;;;;;14.13;47.96;99341.13;1838854;107;25895;-78
2022/04/23 05:52:46;;;;;;;8.30;7.17;;;;;;;14.46;48.32;99374.53;1860791;104;25839;-81
2022/04/23 05:56:39;;;;;;;;;;;;;;;;;;;;;
2022/04/23 06:00:22;;;;;;;7.80;7.15;;;;;;;14.69;48.18;99377.86;1911535;102;25869;-79
2022/04/23 06:04:29;;;;;;;7.37;6.67;;;;;;;14.87;48.10;99380.73;1911456;102;26038;-79
2022/04/23 06:07:36;;;;;;;7.00;6.40;;;;;;;15.06;48.00;99377.50;1902473;102;25762;-80
2022/04/23 06:11:09;;;;;;;6.42;5.90;;;;;;;15.25;47.96;99382.08;1909238;102;25918;-84
2022/04/23 06:14:45;;;;;;;8.35;6.60;;;;;;;15.35;47.83;99374.52;1881950;103;26018;-82
2022/04/23 06:18:21;;;;;;;6.87;6.28;;;;;;;15.48;47.91;99377.88;1851519;106;25884;-86
2022/04/23 06:26:08;;;;;;;6.12;5.45;;;;;;;15.74;47.72;99375.81;1804228;106;26019;-78
2022/04/23 06:29:39;;;;;;;5.12;4.67;;;;;;;15.76;47.74;99370.11;1788153;108;25805;-78
2022/04/23 06:33:01;;;;;;;5.33;4.83;;;;;;;15.91;47.86;99368.14;1814519;108;25901;-79
2022/04/23 06:36:38;;;;;;;5.17;4.78;;;;;;;17.71;47.47;99367.55;1826100;105;25918;-78
2022/04/23 06:40:24;;;;;;;5.28;4.87;;;;;;;19.46;44.94;99366.30;1873656;104;25960;-79
2022/04/23 06:43:44;;;;;;;5.47;4.90;;;;;;;19.04;44.39;99363.95;1853749;105;25747;-81
2022/04/23 06:47:31;;;;;;;4.85;4.45;;;;;;;18.50;44.69;99376.33;1876005;104;26270;-83
2022/04/23 06:51:37;;;;;;;4.72;4.33;;;;;;;18.12;44.97;99378.09;1899979;102;25992;-77
2022/04/23 06:55:16;;;;;;;4.28;3.87;;;;;;;17.87;45.34;99373.84;1889655;101;26211;-76
2022/04/23 07:02:36;;;;;;;4.70;4.10;;;;;;;17.82;45.97;99371.74;1813489;107;26018;-77
2022/04/23 07:06:14;;;;;;;4.05;3.67;;;;;;;17.97;46.00;99371.41;1821104;107;25893;-77
2022/04/23 07:10:00;;;;;;;4.45;3.70;;;;;;;18.07;46.01;99370.30;1824451;104;25984;-79
2022/04/23 07:13:56;;;;;;;;;;;;;;;;;;;;;
2022/04/23 07:17:43;;;;;;;4.55;4.15;;;;;;;18.08;46.09;99375.13;1815189;106;25834;-80
2022/04/23 07:21:06;;;;;;;4.00;3.70;;;;;;;17.91;46.30;99364.95;1859906;103;25917;-77
2022/04/23 07:24:50;;;;;;;4.03;3.72;;;;;;;17.80;46.44;99366.52;1803326;108;26220;-77
2022/04/23 07:28:25;;;;;;;4.20;3.52;;;;;;;17.71;46.55;99365.36;1784129;109;26145;-79
2022/04/23 07:31:57;;;;;;;3.53;3.13;;;;;;;17.59;46.74;99367.83;1782318;109;26375;-77
2022/04/23 07:39:37;;;;;;;;;;;;;;;;;;;;;
2022/04/23 07:43:08;;;;;;;3.83;3.40;;;;;;;17.60;47.07;99361.64;1755073;110;26267;-82
2022/04/23 07:47:03;;;;;;;;;;;;;;;;;;;;;
2022/04/23 07:50:58;;;;;;;3.98;2.65;;;;;;;17.45;47.66;99347.04;1723039;112;26712;-79
2022/04/23 07:54:23;;;;;;;3.98;2.80;;;;;;;17.40;47.78;99352.84;1735305;112;26586;-82
2022/04/23 07:57:59;;;;;;;3.45;2.90;;;;;;;17.32;47.94;99342.92;1717177;113;25983;-78
2022/04/23 08:01:40;;;;;;;7.05;3.05;;;;;;;17.25;48.07;99351.84;1718882;113;25968;-76
2022/04/23 08:05:10;;;;;;;3.05;2.75;;;;;;;17.18;48.19;99356.82;1716025;113;25916;-81
2022/04/23 08:08:40;;;;;;;3.47;2.85;;;;;;;17.10;48.33;99349.05;1723853;112;25821;-77
2022/04/23 08:12:24;;;;;;;2.80;2.60;;;;;;;17.03;48.52;99346.12;1764623;110;25819;-77
2022/04/23 08:16:08;;;;;;;2.75;2.50;;;;;;;16.96;48.66;99346.69;1764820;110;25932;-77
2022/04/23 08:19:37;;;;;;;2.83;2.40;;;;;;;16.93;48.82;99344.11;1795448;107;25902;-79
2022/04/23 08:23:08;;;;;;;3.08;2.22;;;;;;;16.93;48.98;99349.38;1759312;110;25892;-80
2022/04/23 08:26:39;;;;;;;3.10;2.22;;;;;;;16.88;49.03;99348.61;1772026;107;25849;-86
2022/04/23 08:34:08;;;;;;;;;;;;;;;16.78;49.29;99345.72;1797407;107;26086;-76
2022/04/23 08:37:47;;;;;;;2.62;2.42;;;;;;;16.75;49.45;99345.77;1796693;107;25800;-79
2022/04/23 08:41:31;;;;;;;3.35;2.33;;;;;;;16.73;49.61;99344.89;1743885;110;26139;-80
2022/04/23 08:45:05;;;;;;;2.80;2.60;;;;;;;16.73;49.66;99346.20;1740036;112;25930;-81
2022/04/23 08:48:33;;;;;;;;;;;;;;;16.71;49.72;99343.61;1763451;110;25939;-75
2022/04/23 08:52:25;;;;;;;2.30;2.10;;;;;;;16.71;49.82;99346.70;1751165;110;25919;-77
2022/04/23 08:55:50;;;;;;;4.08;2.50;;;;;;;16.66;49.92;99340.19;1695428;114;25961;-81
2022/04/23 08:59:33;;;;;;;2.40;2.20;;;;;;;16.62;49.99;99331.92;1708551;113;25889;-77
2022/04/23 09:07:17;;;;;;;;;;;;;;;;;;;;;
2022/04/23 09:10:59;;;;;;;2.25;2.05;;;;;;;16.52;50.28;99336.94;1708473;114;25942;-77
2022/04/23 09:14:53;;;;;;;2.75;2.52;;;;;;;16.47;50.38;99323.88;1721477;108;25872;-75
2022/04/23 09:26:25;;;;;;;2.12;1.92;;;;;;;16.42;50.64;99331.41;1802092;108;25940;-76
2022/04/23 09:30:27;;;;;;;2.27;2.08;;;;;;;16.47;50.84;99327.81;1794991;108;25934;-84
2022/04/23 09:34:32;;;;;;;2.02;1.92;;;;;;;16.68;50.88;99325.25;1802404;108;26095;-78
2022/04/23 09:38:40;;;;;;;2.12;1.90;;;;;;;17.39;50.65;99321.27;1817855;106;25892;-77
2022/04/23 09:42:34;;;;;;;3.33;1.75;;;;;;;19.53;49.55;99326.88;1755922;111;25987;-77
2022/04/23 09:46:28;;;;;;;2.08;1.85;;;;;;;20.72;48.09;99315.15;1754975;110;25902;-77
2022/04/23 09:50:39;;;;;;;;;;;;;;;;;;;;;
2022/04/23 09:53:57;;;;;;;1.72;1.62;;;;;;;21.39;46.28;99320.27;1654076;117;25903;-77
2022/04/23 09:57:46;;;;;;;1.52;1.42;;;;;;;21.41;46.05;99310.47;1653313;118;26086;-76
2022/04/23 10:01:34;;;;;;;1.90;1.70;;;;;;;21.41;45.91;99311.80;1684488;116;25941;-76
2022/04/23 10:05:31;;;;;;;1.72;1.62;;;;;;;21.30;45.84;99307.34;1731317;112;25927;-84
2022/04/23 10:09:05;;;;;;;1.62;1.47;;;;;;;21.13;45.88;99311.48;1761666;112;25854;-78
2022/04/23 10:12:38;;;;;;;2.90;1.77;;;;;;;20.92;46.04;99311.80;1763548;110;25909;-76
2022/04/23 10:16:23;;;;;;;2.67;1.85;;;;;;;20.77;46.24;99312.33;1763683;110;25898;-81
2022/04/23 10:20:09;;;;;;;3.15;1.85;;;;;;;20.62;46.46;99315.06;1766892;111;26017;-77
2022/04/23 10:24:09;;;;;;;2.35;1.70;;;;;;;20.51;46.65;99311.89;1764478;112;26000;-79
2022/04/23 10:27:39;;;;;;;1.67;1.57;;;;;;;20.43;46.86;99309.95;1765866;110;25921;-79
2022/04/23 10:31:27;;;;;;;1.95;1.47;;;;;;;20.34;47.07;99324.80;1744657;111;25859;-77
2022/04/23 10:39:24;;;;;;;1.65;1.40;;;;;;;20.20;47.34;99319.97;1689998;116;25964;-76
2022/04/23 10:43:12;;;;;;;1.62;1.52;;;;;;;20.12;47.52;99325.98;1696633;113;25965;-78
2022/04/23 10:46:50;;;;;;;1.75;1.47;;;;;;;20.01;47.63;99321.91;1703688;113;26565;-78
2022/04/23 10:50:35;;;;;;;;;;;;;;;;;;;;;
2022/04/23 10:54:02;;;;;;;2.22;1.72;;;;;;;19.79;47.90;99316.41;1771023;109;26037;-79
2022/04/23 10:57:34;;;;;;;2.08;1.87;;;;;;;19.68;48.02;99322.95;1786761;109;25961;-78
2022/04/23 11:01:04;;;;;;;1.52;1.42;;;;;;;19.54;48.24;99319.34;1797439;108;26004;-80
2022/04/23 11:04:29;;;;;;;1.30;1.20;;;;;;;19.42;48.42;99324.55;1801648;108;25961;-83
2022/04/23 11:12:37;;;;;;;1.52;1.42;;;;;;;19.19;48.76;99332.27;1803819;108;25862;-79
2022/04/23 11:16:28;;;;;;;1.70;1.60;;;;;;;19.07;49.02;99325.11;1814621;105;25980;-81
2022/04/23 11:19:59;;;;;;;3.10;1.62;;;;;;;19.02;49.27;99323.05;1823473;105;26107;-80
2022/04/23 11:23:31;;;;;;;1.32;1.20;;;;;;;19.05;49.52;99322.09;1807550;107;25951;-78
2022/04/23 11:27:08;;;;;;;4.45;1.65;;;;;;;19.10;49.55;99326.36;1848053;104;26013;-80
2022/04/23 11:30:50;;;;;;;1.77;1.67;;;;;;;19.11;49.50;99325.44;1921397;101;25865;-81
2022/04/23 11:34:29;;;;;;;1.52;1.42;;;;;;;19.08;49.51;99318.91;1906577;102;25787;-78
2022/04/23 11:41:39;;;;;;;1.98;1.70;;;;;;;19.03;49.59;99323.44;1776249;109;25913;-79
2022/04/23 11:45:14;;;;;;;1.17;1.07;;;;;;;19.00;49.61;99316.06;1774285;108;25952;-79
2022/04/23 11:49:05;;;;;;;1.65;1.55;;;;;;;18.97;49.73;99308.25;1767622;110;25909;-78
2022/04/23 11:52:41;;;;;;;1.47;1.37;;;;;;;18.93;49.76;99314.50;1776916;108;26364;-80
2022/04/23 11:56:30;;;;;;;2.42;2.20;;;;;;;18.90;49.83;99309.30;1737617;110;26028;-81
2022/04/23 12:00:17;;;;;;;3.20;1.87;;;;;;;18.98;50.22;99311.30;1767690;106;26061;-78
2022/04/23 12:03:58;;;;;;;3.55;2.33;;;;;;;19.17;50.22;99303.27;1774702;110;25829;-81
2022/04/23 12:07:49;;;;;;;4.45;1.82;;;;;;;19.40;50.35;99307.00;1770419;110;25924;-81
2022/04/23 12:11:36;;;;;;;;;;;;;;;19.84;50.29;99310.10;1769943;110;25902;-81
2022/04/23 12:15:20;;;;;;;1.50;1.40;;;;;;;20.82;49.48;99304.20;1780273;109;25832;-77
2022/04/23 12:19:13;;;;;;;1.60;1.50;;;;;;;21.64;48.11;99306.48;1779872;109;25925;-82
2022/04/23 12:23:20;;;;;;;1.47;1.37;;;;;;;22.41;47.20;99303.42;1834562;105;25950;-79
2022/04/23 12:26:53;;;;;;;1.85;1.37;;;;;;;23.07;46.27;99305.41;1904754;98;25823;-82
2022/04/23 12:42:24;;;;;;;1.80;1.25;;;;;;;24.87;41.65;99296.75;2074250;93;25981;-79
2022/04/23 12:46:16;;;;;;;4.78;1.60;;;;;;;25.41;40.98;99299.66;2034042;95;25855;-79
2022/04/23 12:50:02;;;;;;;2.22;1.10;;;;;;;26.03;40.27;99299.77;2030879;95;25634;-84
2022/04/23 12:57:55;;;;;;;1.62;1.22;;;;;;;26.79;37.82;99293.55;1936958;99;26175;-79
2022/04/23 13:01:29;;;;;;;1.32;1.10;;;;;;;26.78;37.02;99294.03;1879880;105;25812;-78
2022/04/23 13:05:14;;;;;;;1.57;1.10;;;;;;;26.41;36.65;99303.36;1878913;103;25884;-78
2022/04/23 13:08:59;;;;;;;2.15;1.10;;;;;;;26.06;36.61;99294.73;1796509;108;26410;-78
2022/04/23 13:12:48;;;;;;;1.55;0.80;;;;;;;25.71;36.37;99294.02;1729869;110;25411;-78
2022/04/23 13:16:27;;;;;;;;;;;;;;;;;;;;;
2022/04/23 13:19:59;;;;;;;4.10;0.90;;;;;;;25.24;35.32;99286.82;1729815;112;25915;-81
2022/04/23 13:23:59;;;;;;;2.05;1.10;;;;;;;25.07;34.63;99291.22;;;;
2022/04/23 13:27:24;;;;;;;1.52;1.10;;;;;;;25.00;34.11;99292.97;1729772;114;25877;-80
2022/04/23 13:31:03;;;;;;;0.98;0.80;;;;;;;25.36;33.70;99288.84;1708241;112;25883;-82
2022/04/23 13:34:49;;;;;;;0.80;0.78;;;;;;;25.48;33.14;99283.28;1682029;116;26186;-79
2022/04/23 13:44:02;;;;;;;;;;;;;;;;;;;;;
2022/04/23 13:48:13;;;;;;;0.80;0.65;;;;;;;25.86;32.21;99275.84;1716015;113;25935;-84
2022/04/23 13:52:04;;;;;;;2.12;0.60;;;;;;;25.65;32.34;99280.08;1743950;110;25808;-80
2022/04/23 13:55:48;;;;;;;;;;;;;;;;;;;;;
2022/04/23 13:59:31;;;;;;;0.72;0.70;;;;;;;25.59;31.93;99282.23;1769004;109;25982;-79
2022/04/23 14:10:27;;;;;;;2.90;0.70;;;;;;;25.23;31.45;99265.10;1867666;104;25920;-86
2022/04/23 14:14:02;;;;;;;;;;;;;;;25.24;31.50;99265.00;1869321;104;26055;-79
2022/04/23 14:17:34;;;;;;;0.55;0.55;;;;;;;25.04;31.33;99262.52;1868380;104;25894;-79
2022/04/23 14:21:23;;;;;;;3.35;0.55;;;;;;;24.80;32.07;99264.22;1973436;97;25756;-78
2022/04/23 14:24:52;;;;;;;13.95;3.22;;;;;;;24.62;32.77;99257.20;1958277;99;25985;-79
2022/04/23 14:28:15;;;;;;;0.70;0.50;;;;;;;24.53;33.26;99251.87;1993578;98;25831;-80
2022/04/23 14:31:39;;;;;;;1.60;0.80;;;;;;;24.53;33.67;99241.69;1959087;100;26523;-83
2022/04/23 14:35:19;;;;;;;1.90;0.65;;;;;;;24.35;33.97;99248.80;1868239;104;25849;-78
2022/04/23 14:38:50;;;;;;;1.72;0.60;;;;;;;24.28;34.29;99245.58;1842791;102;26019;-78
2022/04/23 14:42:22;;;;;;;2.30;0.60;;;;;;;24.21;34.59;99236.19;1859941;101;25831;-78
2022/04/23 14:45:51;;;;;;;2.27;0.68;;;;;;;24.07;34.81;99238.22;1860021;103;26504;-79
2022/04/23 14:49:15;;;;;;;1.30;0.60;;;;;;;23.98;35.05;99227.54;1881191;103;26456;-82
2022/04/23 14:56:20;;;;;;;2.87;0.82;;;;;;;23.81;35.38;99224.86;1910135;101;25952;-81
2022/04/23 14:59:43;;;;;;;1.98;0.98;;;;;;;23.85;35.53;99217.58;1929190;100;31577;-84
2022/04/23 15:03:18;;;;;;;6.40;0.80;;;;;;;23.81;35.62;99219.53;1927011;101;25849;-75
2022/04/23 15:06:47;;;;;;;3.90;0.80;;;;;;;23.71;35.68;99228.43;1876840;103;25844;-85
2022/04/23 15:10:19;;;;;;;2.47;1.03;;;;;;;23.56;35.81;99219.38;1893869;102;25884;-79
2022/04/23 15:13:54;;;;;;;3.50;1.02;;;;;;;23.41;35.92;99229.88;1905717;102;26069;-79
2022/04/23 15:17:33;;;;;;;;;;;;;;;;;;;;;
2022/04/23 15:21:21;;;;;;;;;;;;;;;;;;;;;
2022/04/23 15:24:57;;;;;;;;;;;;;;;;;;;;;
2022/04/23 15:28:28;;;;;;;;;;;;;;;;;;;;;
2022/04/23 15:31:47;;;;;;;2.05;0.90;;;;;;;22.56;37.34;99218.22;1865949;101;26283;-80
2022/04/23 15:35:23;;;;;;;;;;;;;;;;;;;;;
2022/04/23 15:39:06;;;;;;;;;;;;;;;;;;;;;
2022/04/23 15:42:43;;;;;;;;;;;;;;;;;;;;;
2022/04/23 15:46:16;;;;;;;3.33;1.05;;;;;;;22.13;38.23;99216.05;1959421;99;25876;-82
2022/04/23 15:49:45;;;;;;;1.22;0.80;;;;;;;22.03;38.38;99216.91;1961777;99;25870;-83
2022/04/23 15:53:28;;;;;;;1.52;0.80;;;;;;;21.93;38.30;99219.54;1924580;100;26473;-82
2022/04/23 15:56:54;;;;;;;1.80;0.80;;;;;;;21.82;38.39;99214.68;1937199;100;25878;-81
2022/04/23 16:04:38;;;;;;;1.05;0.65;;;;;;;21.63;38.71;99213.26;1848226;105;26179;-82
2022/04/23 16:11:55;;;;;;;1.05;0.95;;;;;;;21.53;39.05;99218.97;1711935;115;25886;-79
2022/04/23 16:15:28;;;;;;;1.25;0.80;;;;;;;21.48;39.09;99219.62;1758187;110;25934;-82
2022/04/23 16:22:19;;;;;;;1.17;1.00;;;;;;;21.38;39.19;99223.09;1735696;110;25998;-80
2022/04/23 16:25:44;;;;;;;1.98;1.65;;;;;;;21.34;39.23;99226.77;1742884;112;25457;-86
2022/04/23 16:29:21;;;;;;;1.10;0.90;;;;;;;21.32;39.23;99222.83;1754692;110;26631;-82
2022/04/23 16:47:56;;;;;;;;;;;;;;;;;;;;;
2022/04/23 16:52:26;;;;;;;1.20;1.10;;;;;;;20.92;38.56;99223.05;1669123;116;26601;-77
2022/04/23 16:55:51;;;;;;;1.17;0.95;;;;;;;20.78;38.68;99225.31;1694148;114;25909;-78
2022/04/23 17:00:11;;;;;;;2.72;1.12;;;;;;;20.68;38.75;99221.27;1715221;113;25976;-79
2022/04/23 17:03:43;;;;;;;1.12;0.90;;;;;;;20.57;38.95;99230.94;1761274;110;26608;-82
2022/04/23 17:07:15;;;;;;;1.45;1.35;;;;;;;20.48;39.14;99233.87;1819233;100;25977;-80
2022/04/23 17:10:50;;;;;;;2.08;1.27;;;;;;;20.39;39.34;99232.42;1939128;101;26539;-78
2022/04/23 17:14:26;;;;;;;2.92;1.10;;;;;;;20.30;39.55;99230.09;1939396;100;25866;-81
2022/04/23 17:17:53;;;;;;;2.75;1.22;;;;;;;20.23;39.74;99227.25;1885075;99;25796;-78
2022/04/23 17:21:31;;;;;;;1.92;1.30;;;;;;;20.13;39.95;99229.80;1869769;104;26171;-79
2022/04/23 17:25:00;;;;;;;2.52;1.00;;;;;;;20.05;40.19;99228.75;1864472;104;25969;-83
2022/04/23 17:28:46;;;;;;;0.88;0.75;;;;;;;19.96;40.45;99231.69;1880593;104;26106;-76
2022/04/23 17:32:16;;;;;;;1.32;0.82;;;;;;;19.87;40.70;99227.55;1856317;103;25908;-76
2022/04/23 17:36:03;;;;;;;2.87;1.15;;;;;;;19.78;40.99;99232.70;1905897;102;26008;-78
2022/04/23 17:39:33;;;;;;;1.55;1.45;;;;;;;19.69;41.23;99226.38;1903834;103;25808;-80
2022/04/23 17:43:09;;;;;;;4.28;1.12;;;;;;;19.61;41.47;99223.09;1822383;108;25903;-79
2022/04/23 17:46:53;;;;;;;;;;;;;;;;;;;;;
2022/04/23 17:50:42;;;;;;;3.65;1.20;;;;;;;19.45;41.96;99222.70;1968391;98;25967;-77
2022/04/23 17:54:15;;;;;;;1.02;0.93;;;;;;;19.38;42.18;99229.55;1947566;98;25802;-75
2022/04/23 17:57:42;;;;;;;1.20;0.93;;;;;;;19.29;42.38;99227.59;1966979;100;26636;-74
2022/04/23 18:09:16;;;;;;;;;;;;;;;;;;;;;
2022/04/23 18:12:59;;;;;;;1.35;1.10;;;;;;;19.06;43.19;99221.66;1848399;106;25837;-77
2022/04/23 18:16:37;;;;;;;1.35;1.05;;;;;;;19.00;43.35;99228.47;1837932;106;26071;-79
2022/04/23 18:20:07;;;;;;;1.15;0.93;;;;;;;18.95;43.55;99230.83;1842295;105;25909;-82
2022/04/23 18:23:38;;;;;;;1.57;1.10;;;;;;;18.91;43.71;99226.55;1821144;105;25941;-78
2022/04/23 18:27:45;;;;;;;;;;;;;;;;;;;;;
2022/04/23 18:31:28;;;;;;;;;;;;;;;;;;;;;
2022/04/23 18:34:58;;;;;;;3.70;2.72;;;;;;;18.74;44.15;99231.85;1743245;110;25954;-84
2022/04/23 18:38:46;;;;;;;3.47;3.17;;;;;;;18.70;44.24;99235.92;1711819;113;25972;-87
2022/04/23 18:42:30;;;;;;;3.47;3.10;;;;;;;18.63;44.41;99232.58;1711101;112;25938;-89
2022/04/23 18:46:15;;;;;;;5.70;4.62;;;;;;;18.60;44.53;99236.63;1740368;111;25981;-79
2022/04/23 18:49:50;;;;;;;4.85;3.80;;;;;;;18.54;44.66;99236.78;1733050;110;26264;-91
2022/04/23 18:54:17;;;;;;;;;;;;;;;;;;;;;
2022/04/23 18:57:56;;;;;;;5.80;3.75;;;;;;;18.41;44.89;99223.91;1747006;107;25828;-79
2022/04/23 19:05:19;;;;;;;5.05;4.47;;;;;;;18.29;45.09;99220.30;1736492;111;26063;-85
2022/04/23 19:30:34;;;;;;;4.90;3.72;;;;;;;17.93;45.72;99204.50;1838955;106;26245;-78
2022/04/23 19:47:28;;;;;;;3.58;2.95;;;;;;;17.72;46.14;99210.28;1779029;109;26024;-90
2022/04/23 19:50:53;;;;;;;7.05;2.98;;;;;;;17.63;46.27;99203.91;1812273;109;25824;-88
2022/04/23 19:55:15;;;;;;;3.95;2.95;;;;;;;17.60;46.34;99200.02;1749085;107;26214;-89
2022/04/23 19:58:15;;;;;;;4.53;3.05;;;;;;;17.57;46.44;99204.91;1697733;114;25940;-86
2022/04/23 20:24:46;;;;;;;;;;;;;;;;;;;;;
2022/04/23 20:32:35;;;;;;;3.17;2.65;;;;;;;17.35;46.92;99179.53;1634065;120;25904;-89
2022/04/23 20:39:59;;;;;;;3.62;3.33;;;;;;;17.31;47.04;99179.61;1590320;121;26103;-86
2022/04/23 20:43:43;;;;;;;;;;;;;;;;;;;;;
2022/04/23 20:47:07;;;;;;;4.75;3.00;;;;;;;17.28;47.11;99171.36;1591574;120;26188;-85
2022/04/23 20:50:42;;;;;;;3.58;2.75;;;;;;;17.28;47.15;99179.69;1650782;115;25884;-85
2022/04/23 20:54:28;;;;;;;5.72;3.30;;;;;;;17.26;47.14;99182.37;1662851;115;25956;-81
2022/04/23 20:58:52;;;;;;;;;;;;;;;;;;;;;
2022/04/23 21:03:07;;;;;;;;;;;;;;;;;;;;;
2022/04/23 21:20:25;;;;;;;;;;;;;;;;;;;;;
2022/04/23 21:28:29;;;;;;;5.60;4.58;;;;;;;17.08;47.15;99176.21;1767878;110;25926;-90
2022/04/23 21:32:11;;;;;;;5.53;4.97;;;;;;;17.05;47.15;99184.17;1769022;110;25928;-80
2022/04/23 21:36:22;;;;;;;5.92;5.37;;;;;;;17.03;47.24;99184.64;1743557;112;26061;-85
2022/04/23 21:39:58;;;;;;;5.97;5.37;;;;;;;16.99;47.29;99186.02;1753448;110;25932;-87
2022/04/23 21:52:21;;;;;;;7.20;5.80;;;;;;;16.94;47.48;99175.16;1742428;109;26190;-85
2022/04/23 21:56:23;;;;;;;;;;;;;;;;;;;;;
2022/04/23 22:03:53;;;;;;;;;;;;;;;;;;;;;
2022/04/23 22:11:16;;;;;;;10.85;7.78;;;;;;;16.81;47.86;99171.95;1744778;111;25927;-86
2022/04/23 22:14:43;;;;;;;10.53;8.43;;;;;;;16.80;47.77;99171.97;1713133;113;25878;-88
2022/04/23 22:18:23;;;;;;;12.23;9.08;;;;;;;16.71;47.63;99172.56;1717733;113;26003;-85
2022/04/23 22:22:25;;;;;;;12.80;10.65;;;;;;;16.66;47.57;99177.03;1704450;112;25811;-83
2022/04/23 22:25:43;;;;;;;16.25;10.55;;;;;;;16.60;47.48;99173.20;1695678;112;25858;-81
2022/04/23 22:29:09;;;;;;;13.93;10.98;;;;;;;16.55;47.39;99169.81;1672896;116;25920;-78
